createdAt,value
2022-08-12T00:02:05.659Z,1.15
2022-08-12T00:07:27.789Z,1.20
2022-08-12T00:12:48.819Z,0.93
2022-08-12T00:18:12.058Z,1.13
2022-08-12T00:23:33.789Z,1.10
2022-08-12T00:28:54.713Z,1.30
2022-08-12T00:34:17.470Z,0.98
2022-08-12T00:39:39.059Z,1.45
2022-08-12T00:44:44.091Z,1.05
2022-08-12T00:49:52.342Z,1.00
2022-08-12T00:54:58.097Z,0.98
2022-08-12T01:00:03.417Z,1.00
2022-08-12T01:05:30.948Z,0.80
2022-08-12T01:10:56.280Z,1.27
2022-08-12T01:16:02.936Z,1.08
2022-08-12T01:21:16.839Z,1.65
2022-08-12T01:26:25.578Z,1.30
2022-08-12T01:31:30.650Z,1.40
2022-08-12T01:36:40.856Z,1.10
2022-08-12T01:41:53.732Z,1.30
2022-08-12T01:47:05.853Z,1.67
2022-08-12T01:52:22.430Z,1.40
2022-08-12T01:57:58.989Z,1.13
2022-08-12T02:03:14.280Z,1.13
2022-08-12T02:08:45.595Z,1.10
2022-08-12T02:14:10.986Z,1.50
2022-08-12T02:19:27.787Z,1.58
2022-08-12T02:24:33.904Z,1.63
2022-08-12T02:29:40.818Z,1.63
2022-08-12T02:34:45.926Z,1.90
2022-08-12T02:39:51.061Z,1.70
2022-08-12T02:44:57.771Z,2.35
2022-08-12T02:50:04.861Z,1.70
2022-08-12T02:55:28.819Z,1.80
2022-08-12T03:00:41.188Z,1.70
2022-08-12T03:05:52.482Z,1.65
2022-08-12T03:10:58.869Z,1.88
2022-08-12T03:16:07.759Z,2.13
2022-08-12T03:21:13.553Z,2.03
2022-08-12T03:26:16.980Z,2.10
2022-08-12T03:31:24.642Z,1.80
2022-08-12T03:36:30.591Z,2.10
2022-08-12T03:41:35.419Z,1.60
2022-08-12T03:47:00.823Z,2.08
2022-08-12T03:52:22.550Z,1.90
2022-08-12T03:57:44.431Z,1.90
2022-08-12T04:03:01.676Z,1.80
2022-08-12T04:08:08.980Z,1.80
2022-08-12T04:13:19.644Z,2.05
2022-08-12T04:18:24.714Z,1.42
2022-08-12T04:23:28.835Z,1.90
2022-08-12T04:28:32.219Z,1.90
2022-08-12T04:33:38.318Z,1.67
2022-08-12T04:38:43.286Z,2.00
2022-08-12T04:43:59.671Z,1.80
2022-08-12T04:49:07.417Z,2.20
2022-08-12T04:54:10.777Z,1.98
2022-08-12T04:59:17.230Z,1.88
2022-08-12T05:04:25.701Z,1.80
2022-08-12T05:09:59.445Z,1.65
2022-08-12T05:14:52.620Z,1.88
2022-08-12T05:20:04.972Z,1.67
2022-08-12T05:25:11.986Z,1.50
2022-08-12T05:30:19.234Z,1.92
2022-08-12T05:35:31.610Z,1.50
2022-08-12T05:40:34.981Z,1.90
2022-08-12T05:45:44.258Z,1.75
2022-08-12T05:50:50.190Z,2.00
2022-08-12T05:55:55.637Z,1.75
2022-08-12T06:00:59.914Z,1.90
2022-08-12T06:06:27.779Z,1.63
2022-08-12T06:11:34.498Z,1.77
2022-08-12T06:16:38.899Z,1.80
2022-08-12T06:21:43.934Z,1.65
2022-08-12T06:26:47.177Z,1.70
2022-08-12T06:31:52.412Z,1.75
2022-08-12T06:36:57.027Z,1.77
2022-08-12T06:42:31.654Z,1.60
2022-08-12T06:47:38.051Z,1.40
2022-08-12T06:52:42.639Z,1.40
2022-08-12T06:58:05.261Z,1.40
2022-08-12T07:03:23.164Z,1.73
2022-08-12T07:08:29.575Z,1.33
2022-08-12T07:14:04.751Z,1.50
2022-08-12T07:19:02.016Z,1.20
2022-08-12T07:24:08.835Z,1.33
2022-08-12T07:29:12.403Z,1.40
2022-08-12T07:34:17.221Z,1.58
2022-08-12T07:39:21.827Z,1.25
2022-08-12T07:44:25.932Z,1.25
2022-08-12T07:49:29.218Z,1.25
2022-08-12T07:54:34.748Z,1.52
2022-08-12T07:59:38.012Z,1.52
2022-08-12T08:05:06.899Z,1.50
2022-08-12T08:10:13.851Z,1.02
2022-08-12T08:15:18.047Z,1.02
2022-08-12T08:20:23.570Z,1.25
2022-08-12T08:25:36.255Z,1.10
2022-08-12T08:30:43.945Z,1.98
2022-08-12T08:35:49.300Z,1.40
2022-08-12T08:41:11.094Z,1.30
2022-08-12T08:46:14.527Z,0.93
2022-08-12T08:56:50.265Z,1.10
2022-08-12T09:01:53.727Z,1.30
2022-08-12T09:06:58.619Z,1.38
2022-08-12T09:12:27.637Z,1.35
2022-08-12T09:17:39.973Z,1.20
2022-08-12T09:22:49.073Z,1.13
2022-08-12T09:27:57.539Z,1.15
2022-08-12T09:34:25.677Z,1.20
2022-08-12T09:38:59.125Z,1.20
2022-08-12T09:44:39.250Z,1.20
2022-08-12T09:49:44.242Z,1.05
2022-08-12T09:54:50.164Z,1.30
2022-08-12T10:00:12.874Z,1.10
2022-08-12T10:06:20.375Z,1.10
2022-08-12T10:11:20.513Z,1.15
2022-08-12T10:16:29.244Z,1.20
2022-08-12T10:21:37.693Z,1.38
2022-08-12T10:27:06.070Z,1.10
2022-08-12T10:32:22.055Z,1.20
2022-08-12T10:38:34.557Z,0.98
2022-08-12T10:43:07.920Z,1.10
2022-08-12T10:48:33.678Z,1.40
2022-08-12T10:53:45.458Z,1.20
2022-08-12T10:58:50.483Z,1.20
2022-08-12T11:04:23.265Z,1.15
2022-08-12T11:09:51.226Z,1.20
2022-08-12T11:14:49.076Z,1.25
2022-08-12T11:19:55.953Z,1.20
2022-08-12T11:24:59.398Z,1.20
2022-08-12T11:30:31.453Z,1.13
2022-08-12T11:35:36.601Z,0.95
2022-08-12T11:40:42.627Z,1.67
2022-08-12T11:45:47.529Z,1.88
2022-08-12T11:50:52.928Z,1.02
2022-08-12T11:55:56.335Z,1.10
2022-08-12T12:02:02.279Z,1.10
2022-08-12T12:06:28.258Z,1.10
2022-08-12T12:11:48.833Z,0.80
2022-08-12T12:16:54.308Z,1.00
2022-08-12T12:21:59.003Z,1.20
2022-08-12T12:27:04.258Z,1.10
2022-08-12T12:32:10.057Z,1.08
2022-08-12T12:38:03.326Z,1.30
2022-08-12T12:42:43.950Z,1.50
2022-08-12T12:47:58.946Z,1.15
2022-08-12T12:53:03.587Z,1.10
2022-08-12T12:58:11.342Z,1.40
2022-08-12T13:03:23.421Z,1.10
2022-08-12T13:08:35.512Z,1.10
2022-08-12T13:14:06.760Z,1.27
2022-08-12T13:19:07.858Z,0.95
2022-08-12T13:24:12.602Z,1.77
2022-08-12T13:29:18.082Z,1.15
2022-08-12T13:34:33.386Z,1.08
2022-08-12T13:39:40.182Z,1.00
2022-08-12T13:44:43.887Z,1.00
2022-08-12T13:49:53.784Z,0.90
2022-08-12T13:55:06.142Z,1.20
2022-08-12T14:00:12.858Z,1.23
2022-08-12T14:05:31.208Z,1.10
2022-08-12T14:10:51.066Z,1.30
2022-08-12T14:15:57.545Z,1.38
2022-08-12T14:21:04.326Z,1.52
2022-08-12T14:26:21.525Z,2.38
2022-08-12T14:31:31.475Z,2.13
2022-08-12T14:36:35.356Z,2.33
2022-08-12T14:41:50.321Z,2.58
2022-08-12T14:47:09.108Z,1.42
2022-08-12T14:53:11.458Z,1.60
2022-08-12T14:57:56.496Z,1.38
2022-08-12T15:03:03.868Z,1.33
2022-08-12T15:08:12.613Z,1.17
2022-08-12T15:13:20.067Z,1.10
2022-08-12T15:18:31.647Z,1.20
2022-08-12T15:23:55.007Z,1.17
2022-08-12T15:29:00.351Z,1.60
2022-08-12T15:34:06.832Z,1.60
2022-08-12T15:39:16.703Z,1.10
2022-08-12T15:44:38.905Z,1.38
2022-08-12T15:49:54.441Z,1.50
2022-08-12T15:55:06.250Z,1.52
2022-08-12T16:06:11.988Z,1.70
2022-08-12T16:11:15.291Z,1.05
2022-08-12T16:16:24.737Z,1.20
2022-08-12T16:21:51.229Z,1.30
2022-08-12T16:26:54.259Z,1.38
2022-08-12T16:32:03.851Z,1.00
2022-08-12T16:37:08.791Z,1.15
2022-08-12T16:42:13.554Z,1.48
2022-08-12T16:47:21.905Z,1.30
2022-08-12T16:52:25.146Z,1.50
2022-08-12T16:57:34.812Z,1.23
2022-08-12T17:02:40.459Z,1.20
2022-08-12T17:07:47.198Z,1.17
2022-08-12T17:12:55.425Z,1.58
2022-08-12T17:18:38.901Z,1.35
2022-08-12T17:23:33.246Z,1.15
2022-08-12T17:28:53.330Z,1.08
2022-08-12T17:34:00.586Z,0.88
2022-08-12T17:39:09.525Z,1.20
2022-08-12T17:44:14.680Z,0.95
2022-08-12T17:50:02.298Z,0.95
2022-08-12T17:54:46.466Z,1.10
2022-08-12T17:59:51.590Z,1.02
2022-08-12T18:05:05.311Z,0.90
2022-08-12T18:10:14.646Z,1.05
2022-08-12T18:15:26.713Z,0.90
2022-08-12T18:20:45.073Z,0.90
2022-08-12T18:26:16.454Z,0.60
2022-08-12T18:31:24.138Z,0.63
2022-08-12T18:36:54.954Z,0.90
2022-08-12T18:42:00.617Z,0.70
2022-08-12T18:47:09.686Z,0.98
2022-08-12T18:52:19.734Z,0.45
2022-08-12T18:58:07.770Z,0.63
2022-08-12T19:02:50.075Z,0.80
2022-08-12T19:08:01.043Z,1.05
2022-08-12T19:13:25.395Z,0.68
2022-08-12T19:18:40.440Z,0.80
2022-08-12T19:24:05.607Z,0.70
2022-08-12T19:29:10.900Z,0.52
2022-08-12T19:40:09.228Z,0.95
2022-08-12T19:45:06.961Z,0.80
2022-08-12T19:50:20.314Z,1.00
2022-08-12T19:55:29.272Z,0.60
2022-08-12T20:00:42.281Z,0.60
2022-08-12T20:06:04.637Z,0.63
2022-08-12T20:12:11.335Z,0.60
2022-08-12T20:16:57.450Z,0.70
2022-08-12T20:22:02.496Z,0.77
2022-08-12T20:27:28.761Z,0.60
2022-08-12T20:32:37.396Z,0.60
2022-08-12T20:38:07.485Z,0.80
2022-08-12T20:43:19.099Z,0.40
2022-08-12T20:48:29.303Z,0.70
2022-08-12T20:53:57.533Z,0.60
2022-08-12T20:59:00.105Z,0.50
2022-08-12T21:04:21.669Z,0.50
2022-08-12T21:09:27.637Z,0.60
2022-08-12T21:14:39.673Z,0.63
2022-08-12T21:19:57.442Z,0.43
2022-08-12T21:25:02.517Z,0.73
2022-08-12T21:30:19.491Z,0.70
2022-08-12T21:35:25.330Z,0.65
2022-08-12T21:40:37.636Z,0.40
2022-08-12T21:46:01.398Z,0.55
2022-08-12T21:51:08.738Z,0.40
2022-08-12T21:56:34.959Z,0.40
2022-08-12T22:01:48.789Z,0.50
2022-08-12T22:06:54.434Z,0.40
2022-08-12T22:12:24.378Z,0.77
2022-08-12T22:17:50.493Z,0.50
2022-08-12T22:23:00.386Z,0.60
2022-08-12T22:28:24.798Z,0.50
2022-08-12T22:33:30.551Z,0.93
2022-08-12T22:38:55.299Z,0.47
2022-08-12T22:44:24.834Z,0.60
2022-08-12T22:49:37.101Z,0.65
2022-08-12T22:55:02.674Z,0.50
2022-08-12T23:00:24.048Z,0.80
2022-08-12T23:05:57.700Z,0.55
2022-08-12T23:10:56.279Z,0.70
2022-08-12T23:16:02.628Z,0.57
2022-08-12T23:21:13.549Z,0.57
2022-08-12T23:26:40.261Z,0.60
2022-08-12T23:32:03.603Z,0.63
2022-08-12T23:37:11.212Z,0.60
2022-08-12T23:42:17.667Z,0.70
2022-08-12T23:47:23.002Z,0.80
2022-08-12T23:52:34.707Z,0.60
2022-08-12T23:57:51.111Z,0.47
